Time;durP1;ratioP1;P1;durP2;ratioP2;P2;SDS_P1;SDS_P2;PMS_P1;PMS_P2;Temp;Humidity;BMP_temperature;BMP_pressure;BME280_temperature;BME280_humidity;BME280_pressure;Samples;Min_cycle;Max_cycle;Signal;HPM_P1;HPM_P2
2020/12/12 00:00:34;;;;;;;29.75;19.95;;;2.70;91.70;;;;;;2073193;28;20066;-74
2020/12/12 00:01:35;;;;;;;29.10;19.83;;;2.70;91.70;;;;;;2064092;28;20041;-74
2020/12/12 00:02:36;;;;;;;28.95;19.40;;;2.70;91.70;;;;;;2064187;28;20509;-74
2020/12/12 00:03:37;;;;;;;31.30;20.63;;;2.70;91.70;;;;;;2072445;28;20022;-74
2020/12/12 00:04:37;;;;;;;32.70;20.92;;;2.70;91.80;;;;;;2072348;28;20022;-71
2020/12/12 00:05:43;;;;;;;29.90;20.17;;;2.70;91.90;;;;;;2064639;28;20030;-71
2020/12/12 00:06:46;;;;;;;28.20;19.30;;;2.70;91.90;;;;;;2065141;28;20118;-73
2020/12/12 00:07:47;;;;;;;30.40;19.60;;;2.70;91.80;;;;;;2072576;28;20030;-72
2020/12/12 00:08:48;;;;;;;31.40;19.92;;;2.70;91.80;;;;;;2064400;28;20756;-73
2020/12/12 00:09:49;;;;;;;29.40;19.75;;;2.60;91.90;;;;;;2072446;28;20112;-72
2020/12/12 00:10:50;;;;;;;28.70;19.42;;;2.60;92.00;;;;;;2072435;28;20460;-72
2020/12/12 00:11:53;;;;;;;26.52;18.25;;;2.70;92.00;;;;;;2072270;28;20033;-72
2020/12/12 00:12:54;;;;;;;26.23;17.88;;;2.70;92.00;;;;;;2072346;28;20073;-73
2020/12/12 00:13:54;;;;;;;27.80;18.83;;;2.70;91.80;;;;;;2072484;28;20038;-72
2020/12/12 00:14:55;;;;;;;27.60;18.33;;;2.70;91.80;;;;;;2072426;28;20124;-73
2020/12/12 00:15:57;;;;;;;26.15;17.60;;;2.70;91.80;;;;;;2072313;28;20357;-75
2020/12/12 00:16:57;;;;;;;26.35;18.33;;;2.70;91.80;;;;;;2073193;28;20104;-74
2020/12/12 00:17:58;;;;;;;26.92;18.20;;;2.70;91.80;;;;;;2073017;28;20033;-74
2020/12/12 00:18:59;;;;;;;26.75;18.05;;;2.70;91.90;;;;;;2078707;28;20025;-77
2020/12/12 00:19:59;;;;;;;25.17;17.45;;;2.70;91.90;;;;;;2081204;28;20021;-72
2020/12/12 00:21:00;;;;;;;24.67;17.33;;;2.70;91.90;;;;;;2081094;28;20237;-72
2020/12/12 00:22:01;;;;;;;25.48;17.65;;;2.80;91.80;;;;;;2081547;28;20037;-76
2020/12/12 00:23:04;;;;;;;24.90;17.02;;;2.80;91.80;;;;;;2081645;28;20052;-76
2020/12/12 00:24:05;;;;;;;26.15;17.25;;;2.80;91.70;;;;;;2072948;28;20034;-75
2020/12/12 00:25:08;;;;;;;26.27;17.60;;;2.70;91.70;;;;;;2072509;28;20104;-74
2020/12/12 00:26:08;;;;;;;23.55;16.35;;;2.70;91.80;;;;;;2072463;28;20403;-74
2020/12/12 00:27:09;;;;;;;26.15;17.50;;;2.80;91.80;;;;;;2072188;28;20048;-75
2020/12/12 00:28:10;;;;;;;24.63;16.85;;;2.80;91.80;;;;;;2080630;28;20044;-75
2020/12/12 00:29:12;;;;;;;23.92;15.98;;;2.80;91.70;;;;;;2080537;28;20053;-75
2020/12/12 00:30:13;;;;;;;25.40;16.85;;;2.70;91.60;;;;;;2072635;28;20037;-71
2020/12/12 00:31:18;;;;;;;26.95;17.30;;;2.80;91.60;;;;;;2080514;28;20333;-74
2020/12/12 00:32:21;;;;;;;23.65;15.85;;;2.80;91.60;;;;;;2080150;28;20451;-74
2020/12/12 00:33:22;;;;;;;24.23;16.05;;;2.80;91.60;;;;;;2068683;28;20176;-74
2020/12/12 00:34:27;;;;;;;22.95;15.43;;;2.80;91.60;;;;;;2072538;28;20038;-74
2020/12/12 00:35:28;;;;;;;25.35;16.52;;;2.80;91.60;;;;;;2073010;28;20097;-73
2020/12/12 00:36:28;;;;;;;24.67;16.35;;;2.70;91.60;;;;;;2073008;28;20164;-76
2020/12/12 00:37:30;;;;;;;24.45;16.35;;;2.80;91.70;;;;;;2072708;28;20040;-72
2020/12/12 00:38:31;;;;;;;24.67;16.27;;;2.80;91.70;;;;;;2064590;28;20116;-74
2020/12/12 00:39:31;;;;;;;22.58;15.18;;;2.70;91.70;;;;;;2072518;28;20033;-74
2020/12/12 00:40:35;;;;;;;25.40;16.45;;;2.80;91.70;;;;;;2072404;28;20473;-75
2020/12/12 00:41:37;;;;;;;23.30;15.95;;;2.80;91.70;;;;;;2072090;28;20459;-74
2020/12/12 00:42:39;;;;;;;23.33;15.77;;;2.70;91.70;;;;;;2072145;28;20202;-74
2020/12/12 00:43:40;;;;;;;23.38;15.88;;;2.70;91.70;;;;;;2072458;28;20022;-73
2020/12/12 00:44:43;;;;;;;23.88;16.55;;;2.70;91.80;;;;;;2072372;28;20037;-73
2020/12/12 00:45:49;;;;;;;22.25;14.95;;;2.70;91.90;;;;;;2072383;28;20034;-73
2020/12/12 00:46:49;;;;;;;21.25;14.77;;;2.70;91.90;;;;;;2072200;28;20385;-72
2020/12/12 00:47:50;;;;;;;22.85;15.57;;;2.70;92.20;;;;;;2064392;28;20038;-74
2020/12/12 00:48:51;;;;;;;24.52;16.10;;;2.70;91.90;;;;;;2064125;28;20034;-73
2020/12/12 00:49:52;;;;;;;25.15;16.13;;;2.80;92.00;;;;;;2064157;28;20034;-75
2020/12/12 00:50:53;;;;;;;24.27;16.02;;;2.80;92.00;;;;;;2064084;28;20101;-74
2020/12/12 00:51:54;;;;;;;23.63;15.68;;;2.80;92.00;;;;;;2063943;28;20034;-74
2020/12/12 00:52:54;;;;;;;24.05;15.18;;;2.80;91.90;;;;;;2064188;28;20037;-74
2020/12/12 00:53:55;;;;;;;24.35;15.73;;;2.90;91.90;;;;;;2064397;28;20033;-74
2020/12/12 00:54:56;;;;;;;23.35;16.10;;;2.80;91.80;;;;;;2064073;28;20105;-74
2020/12/12 00:55:57;;;;;;;22.70;15.32;;;2.90;91.90;;;;;;2063818;28;20049;-74
2020/12/12 00:56:58;;;;;;;21.70;15.00;;;2.80;91.80;;;;;;2071960;28;20021;-74
2020/12/12 00:57:58;;;;;;;24.35;15.95;;;2.80;91.80;;;;;;2064018;28;20049;-74
2020/12/12 00:58:59;;;;;;;22.55;15.70;;;2.80;91.80;;;;;;2064035;28;20465;-75
2020/12/12 01:00:00;;;;;;;22.10;15.07;;;2.80;91.90;;;;;;2064628;28;20137;-74
2020/12/12 01:01:01;;;;;;;23.00;15.50;;;2.80;91.90;;;;;;2072195;28;20739;-75
2020/12/12 01:02:01;;;;;;;21.85;15.10;;;2.80;91.90;;;;;;2071686;28;20069;-75
2020/12/12 01:03:03;;;;;;;22.67;15.15;;;2.80;92.00;;;;;;2072343;28;20034;-74
2020/12/12 01:04:04;;;;;;;22.92;15.52;;;2.80;92.00;;;;;;2064251;28;20470;-75
2020/12/12 01:05:05;;;;;;;22.58;15.32;;;2.80;92.00;;;;;;2064473;28;20038;-74
2020/12/12 01:06:10;;;;;;;22.52;15.10;;;2.80;92.10;;;;;;2064553;28;20040;-74
2020/12/12 01:07:10;;;;;;;21.35;14.75;;;2.70;92.20;;;;;;2064698;28;20030;-74
2020/12/12 01:08:11;;;;;;;21.70;14.88;;;2.80;92.20;;;;;;2064498;28;20026;-74
2020/12/12 01:09:12;;;;;;;20.98;14.63;;;2.80;92.20;;;;;;2064481;28;20022;-73
2020/12/12 01:10:13;;;;;;;22.02;14.85;;;2.80;92.20;;;;;;2064665;28;20035;-74
2020/12/12 01:11:17;;;;;;;20.95;14.40;;;2.80;92.20;;;;;;2064464;28;20054;-74
2020/12/12 01:12:18;;;;;;;21.05;14.52;;;2.80;92.10;;;;;;2064306;28;20026;-74
2020/12/12 01:13:19;;;;;;;22.98;15.00;;;2.80;92.20;;;;;;2072376;28;20049;-74
2020/12/12 01:14:20;;;;;;;21.27;14.85;;;2.80;92.20;;;;;;2072079;28;20041;-75
2020/12/12 01:15:21;;;;;;;21.17;14.55;;;2.80;92.20;;;;;;2065236;28;20070;-74
2020/12/12 01:16:22;;;;;;;23.35;15.57;;;2.80;92.10;;;;;;2065079;28;20100;-75
2020/12/12 01:17:23;;;;;;;24.20;15.80;;;2.80;92.10;;;;;;2072753;28;20084;-74
2020/12/12 01:18:23;;;;;;;21.40;14.82;;;2.80;92.10;;;;;;2072990;28;20068;-74
2020/12/12 01:19:24;;;;;;;21.35;14.73;;;2.80;92.10;;;;;;2064870;28;20693;-74
2020/12/12 01:20:25;;;;;;;22.50;15.60;;;2.80;92.10;;;;;;2065114;28;20118;-74
2020/12/12 01:21:25;;;;;;;22.52;15.50;;;2.80;92.20;;;;;;2064281;28;20038;-74
2020/12/12 01:22:26;;;;;;;23.73;15.98;;;2.80;92.30;;;;;;2071824;28;20081;-74
2020/12/12 01:23:27;;;;;;;22.85;15.63;;;2.80;92.30;;;;;;2072013;28;20508;-74
2020/12/12 01:24:28;;;;;;;23.55;15.38;;;2.80;92.40;;;;;;2064711;28;20513;-72
2020/12/12 01:25:29;;;;;;;21.52;15.23;;;2.80;92.40;;;;;;2065937;28;20034;-74
2020/12/12 01:26:29;;;;;;;22.88;16.17;;;2.80;92.30;;;;;;2072275;28;20030;-74
2020/12/12 01:27:30;;;;;;;22.65;15.45;;;2.80;92.40;;;;;;2072004;28;20029;-74
2020/12/12 01:28:31;;;;;;;23.00;15.88;;;2.80;92.50;;;;;;2064371;28;20385;-74
2020/12/12 01:29:32;;;;;;;25.00;16.13;;;2.80;92.60;;;;;;2064342;28;20121;-74
2020/12/12 01:30:36;;;;;;;24.30;16.35;;;2.80;92.60;;;;;;2063788;28;20037;-74
2020/12/12 01:31:36;;;;;;;22.45;15.23;;;2.80;92.60;;;;;;2063612;28;20042;-74
2020/12/12 01:32:38;;;;;;;24.50;17.05;;;2.80;92.60;;;;;;2071754;28;20528;-74
2020/12/12 01:33:40;;;;;;;24.73;16.13;;;2.80;92.60;;;;;;2071932;28;20533;-74
2020/12/12 01:34:40;;;;;;;24.00;16.20;;;2.80;92.60;;;;;;2064499;28;20026;-74
2020/12/12 01:35:42;;;;;;;24.55;16.25;;;2.80;92.70;;;;;;2071926;28;20531;-74
2020/12/12 01:36:46;;;;;;;24.17;16.40;;;2.80;92.70;;;;;;2071695;28;20451;-74
2020/12/12 01:37:47;;;;;;;23.67;16.10;;;2.80;92.70;;;;;;2064363;28;20401;-74
2020/12/12 01:38:48;;;;;;;24.50;15.98;;;2.80;92.60;;;;;;2064352;28;20038;-74
2020/12/12 01:39:48;;;;;;;26.58;17.33;;;2.80;92.60;;;;;;2064400;28;20034;-74
2020/12/12 01:40:55;;;;;;;25.30;16.98;;;2.80;92.50;;;;;;2065958;28;20389;-74
2020/12/12 01:41:55;;;;;;;25.55;17.35;;;2.70;92.70;;;;;;2071732;28;20169;-74
2020/12/12 01:42:56;;;;;;;24.60;17.40;;;2.70;92.70;;;;;;2064164;28;20022;-74
2020/12/12 01:43:57;;;;;;;23.10;16.38;;;2.80;92.80;;;;;;2063861;28;20077;-74
2020/12/12 01:44:59;;;;;;;25.80;17.20;;;2.80;92.80;;;;;;2064293;28;20507;-74
2020/12/12 01:45:59;;;;;;;25.63;17.30;;;2.70;92.80;;;;;;2064283;28;20105;-74
2020/12/12 01:47:01;;;;;;;25.35;17.25;;;2.80;92.80;;;;;;2064259;28;20389;-74
2020/12/12 01:48:03;;;;;;;24.83;16.88;;;2.80;92.80;;;;;;2064328;28;20057;-74
2020/12/12 01:49:05;;;;;;;23.67;16.60;;;2.80;92.80;;;;;;2071652;28;20034;-74
2020/12/12 01:50:08;;;;;;;25.25;16.90;;;2.80;92.80;;;;;;2071554;28;20026;-74
2020/12/12 01:51:11;;;;;;;25.30;17.35;;;2.80;92.90;;;;;;2071688;28;20120;-74
2020/12/12 01:52:13;;;;;;;25.65;17.00;;;2.80;92.90;;;;;;2063104;28;20034;-74
2020/12/12 01:53:17;;;;;;;25.08;16.75;;;2.80;92.80;;;;;;2063693;28;20022;-74
2020/12/12 01:54:18;;;;;;;24.15;16.40;;;2.80;92.80;;;;;;2064242;28;20501;-74
2020/12/12 01:55:20;;;;;;;24.58;16.67;;;2.80;92.90;;;;;;2064206;28;20401;-74
2020/12/12 01:56:21;;;;;;;24.77;16.73;;;2.80;92.90;;;;;;2064149;28;20105;-74
2020/12/12 01:57:23;;;;;;;24.73;17.23;;;2.80;92.80;;;;;;2076558;28;20032;-74
2020/12/12 01:58:23;;;;;;;25.25;17.05;;;2.80;92.80;;;;;;2079716;28;20068;-73
2020/12/12 01:59:24;;;;;;;24.50;16.75;;;2.80;92.80;;;;;;2072197;28;20179;-74
2020/12/12 02:00:25;;;;;;;24.27;16.38;;;2.80;92.70;;;;;;2071550;28;20120;-74
2020/12/12 02:01:27;;;;;;;24.98;17.42;;;2.80;92.80;;;;;;2055299;28;20033;-73
2020/12/12 02:02:28;;;;;;;22.23;15.48;;;2.80;92.80;;;;;;2063421;28;20023;-74
2020/12/12 02:03:34;;;;;;;23.20;15.93;;;2.80;92.80;;;;;;2071619;28;20029;-74
2020/12/12 02:04:37;;;;;;;23.20;16.15;;;2.80;92.80;;;;;;2072309;28;20037;-74
2020/12/12 02:05:39;;;;;;;23.48;16.33;;;2.80;92.80;;;;;;2072163;28;20025;-74
2020/12/12 02:06:39;;;;;;;22.88;16.13;;;2.80;92.70;;;;;;2079689;28;20037;-75
2020/12/12 02:07:40;;;;;;;26.23;17.33;;;2.90;92.70;;;;;;2079455;28;20029;-74
2020/12/12 02:08:41;;;;;;;24.13;16.52;;;2.80;92.70;;;;;;2079766;28;20036;-74
2020/12/12 02:09:43;;;;;;;23.33;16.20;;;2.80;92.70;;;;;;2072225;28;20026;-74
2020/12/12 02:10:46;;;;;;;24.70;16.88;;;2.80;92.70;;;;;;2079620;28;20501;-74
2020/12/12 02:11:48;;;;;;;26.25;16.88;;;2.80;92.80;;;;;;2071456;28;20068;-74
2020/12/12 02:12:49;;;;;;;23.77;16.40;;;2.80;92.70;;;;;;2071272;28;20030;-74
2020/12/12 02:13:50;;;;;;;25.88;16.58;;;2.80;92.80;;;;;;2071970;28;20029;-74
2020/12/12 02:14:50;;;;;;;23.90;16.23;;;2.80;92.80;;;;;;2072125;28;20037;-74
2020/12/12 02:15:51;;;;;;;22.77;16.05;;;2.80;92.80;;;;;;2072201;28;20045;-74
2020/12/12 02:17:01;;;;;;;23.85;16.65;;;2.80;92.80;;;;;;2071513;28;20030;-74
2020/12/12 02:18:04;;;;;;;25.52;17.55;;;2.80;92.90;;;;;;2071779;28;20030;-74
2020/12/12 02:19:05;;;;;;;26.67;17.80;;;2.80;92.90;;;;;;2071694;28;20574;-74
2020/12/12 02:20:05;;;;;;;26.58;17.60;;;2.90;92.90;;;;;;2072209;28;20034;-75
2020/12/12 02:21:07;;;;;;;25.23;16.75;;;2.80;92.90;;;;;;2072275;28;20060;-74
2020/12/12 02:22:08;;;;;;;22.52;16.52;;;2.90;92.80;;;;;;2071012;28;20136;-74
2020/12/12 02:23:09;;;;;;;23.30;16.33;;;2.90;92.80;;;;;;2071475;28;20018;-74
2020/12/12 02:24:09;;;;;;;23.20;16.35;;;2.90;92.60;;;;;;2071313;28;20547;-74
2020/12/12 02:25:10;;;;;;;23.05;15.27;;;2.90;92.70;;;;;;2071399;28;20467;-74
2020/12/12 02:26:11;;;;;;;23.38;16.50;;;2.90;92.60;;;;;;2079692;28;20026;-73
2020/12/12 02:27:11;;;;;;;23.95;17.15;;;2.90;92.60;;;;;;2072055;28;20388;-74
2020/12/12 02:28:16;;;;;;;24.95;16.95;;;3.00;92.60;;;;;;2072184;28;20021;-74
2020/12/12 02:29:17;;;;;;;26.27;16.83;;;3.00;92.50;;;;;;2072001;28;20034;-74
2020/12/12 02:30:18;;;;;;;24.08;16.40;;;3.00;92.50;;;;;;2072110;28;20663;-74
2020/12/12 02:31:24;;;;;;;24.98;16.60;;;3.00;92.40;;;;;;2071967;28;20030;-74
2020/12/12 02:32:25;;;;;;;24.25;17.05;;;3.00;92.40;;;;;;2071899;28;20389;-74
2020/12/12 02:33:26;;;;;;;22.38;15.73;;;3.00;92.50;;;;;;2072106;28;20034;-74
2020/12/12 02:34:26;;;;;;;22.70;15.85;;;3.00;92.40;;;;;;2072011;28;20049;-74
2020/12/12 02:35:28;;;;;;;22.92;15.48;;;3.10;92.50;;;;;;2072128;28;20600;-74
2020/12/12 02:36:36;;;;;;;23.02;16.33;;;3.00;92.40;;;;;;2071341;28;20446;-74
2020/12/12 02:37:37;;;;;;;22.70;15.77;;;3.00;92.80;;;;;;2072426;28;20334;-74
2020/12/12 02:38:41;;;;;;;23.30;15.82;;;3.00;92.50;;;;;;2079592;28;20048;-74
2020/12/12 02:39:42;;;;;;;23.85;15.73;;;3.00;92.50;;;;;;2072034;28;20029;-74
2020/12/12 02:40:43;;;;;;;22.17;15.70;;;3.10;92.50;;;;;;2072109;28;20330;-74
2020/12/12 02:41:44;;;;;;;21.77;15.60;;;3.10;92.50;;;;;;2071267;28;20527;-74
2020/12/12 02:42:45;;;;;;;22.83;15.45;;;3.10;92.40;;;;;;2071158;28;20084;-74
2020/12/12 02:43:49;;;;;;;22.70;16.20;;;3.10;92.40;;;;;;2072087;28;20366;-74
2020/12/12 02:44:51;;;;;;;22.75;15.60;;;3.10;92.40;;;;;;2071280;28;20113;-74
2020/12/12 02:45:52;;;;;;;21.95;14.98;;;3.10;92.30;;;;;;2071466;28;20018;-74
2020/12/12 02:46:53;;;;;;;21.55;15.10;;;3.10;92.30;;;;;;2072376;28;20050;-74
2020/12/12 02:47:54;;;;;;;23.40;15.90;;;3.10;92.30;;;;;;2072184;28;20030;-75
2020/12/12 02:48:55;;;;;;;22.88;15.68;;;3.10;92.30;;;;;;2072134;28;20159;-74
2020/12/12 02:50:11;;;;;;;22.27;15.52;;;3.10;92.30;;;;;;2072075;28;20091;-73
2020/12/12 02:51:12;;;;;;;21.58;14.90;;;3.20;92.30;;;;;;2071287;28;20037;-74
2020/12/12 02:52:13;;;;;;;20.95;15.02;;;3.20;92.20;;;;;;2071027;28;20029;-73
2020/12/12 02:53:13;;;;;;;22.73;15.80;;;3.20;92.20;;;;;;2072040;28;20767;-74
2020/12/12 02:54:14;;;;;;;20.35;14.55;;;3.20;92.20;;;;;;2071989;28;20064;-74
2020/12/12 02:55:15;;;;;;;21.75;15.15;;;3.20;92.20;;;;;;2071290;28;20037;-74
2020/12/12 02:56:17;;;;;;;23.85;15.07;;;3.20;92.20;;;;;;2071101;28;22052;-74
2020/12/12 02:57:17;;;;;;;24.02;16.25;;;3.20;92.10;;;;;;2071285;28;20076;-74
2020/12/12 02:58:18;;;;;;;24.33;15.60;;;3.20;92.10;;;;;;2071380;28;20049;-74
2020/12/12 02:59:18;;;;;;;19.75;14.60;;;3.20;92.10;;;;;;2071952;28;20029;-74
2020/12/12 03:00:22;;;;;;;22.15;15.40;;;3.30;92.00;;;;;;2071993;28;20038;-73
2020/12/12 03:01:24;;;;;;;22.25;15.52;;;3.30;92.00;;;;;;2071699;28;20026;-73
2020/12/12 03:02:24;;;;;;;23.35;15.43;;;3.30;92.00;;;;;;2079254;28;20030;-74
2020/12/12 03:03:25;;;;;;;22.38;15.40;;;3.30;92.00;;;;;;2079495;28;20523;-74
2020/12/12 03:04:26;;;;;;;21.70;15.27;;;3.30;92.00;;;;;;2071370;28;20099;-74
2020/12/12 03:05:26;;;;;;;22.77;15.13;;;3.30;91.90;;;;;;2071491;28;20042;-74
2020/12/12 03:06:27;;;;;;;20.75;14.25;;;3.30;92.30;;;;;;2071282;28;20140;-74
2020/12/12 03:07:28;;;;;;;20.63;14.77;;;3.30;91.90;;;;;;2063196;28;20035;-74
2020/12/12 03:08:28;;;;;;;22.42;15.25;;;3.30;91.90;;;;;;2071323;28;20575;-74
2020/12/12 03:09:29;;;;;;;22.63;15.57;;;3.30;91.90;;;;;;2072007;28;20096;-74
2020/12/12 03:10:30;;;;;;;21.90;15.27;;;3.20;91.90;;;;;;2071918;28;20045;-74
2020/12/12 03:11:30;;;;;;;27.73;16.73;;;3.30;92.00;;;;;;2079173;28;20052;-74
2020/12/12 03:12:32;;;;;;;24.15;15.32;;;3.30;92.00;;;;;;2079111;28;20068;-74
2020/12/12 03:13:33;;;;;;;23.80;15.65;;;3.20;91.90;;;;;;2079388;28;20128;-74
2020/12/12 03:14:34;;;;;;;22.40;14.98;;;3.20;91.90;;;;;;2079468;28;20033;-74
2020/12/12 03:15:34;;;;;;;26.17;16.52;;;3.30;91.90;;;;;;2071924;28;20092;-74
2020/12/12 03:16:35;;;;;;;25.00;15.45;;;3.30;91.90;;;;;;2071988;28;20472;-74
2020/12/12 03:17:36;;;;;;;21.85;15.35;;;3.30;91.90;;;;;;2071937;28;20095;-74
2020/12/12 03:18:37;;;;;;;22.45;15.07;;;3.30;91.80;;;;;;2079380;28;20029;-74
2020/12/12 03:19:38;;;;;;;21.38;14.60;;;3.30;91.80;;;;;;2079424;28;20029;-74
2020/12/12 03:20:39;;;;;;;22.65;14.77;;;3.30;91.80;;;;;;2071893;28;20021;-74
2020/12/12 03:21:39;;;;;;;25.90;16.80;;;3.30;91.80;;;;;;2071744;28;20545;-74
2020/12/12 03:22:40;;;;;;;28.85;16.75;;;3.30;91.80;;;;;;2071538;28;20488;-74
2020/12/12 03:23:41;;;;;;;24.63;16.20;;;3.30;91.80;;;;;;2071762;28;20392;-74
2020/12/12 03:24:41;;;;;;;26.17;15.70;;;3.30;91.80;;;;;;2071145;28;20117;-74
2020/12/12 03:25:42;;;;;;;21.10;14.73;;;3.30;91.80;;;;;;2063068;28;20030;-74
2020/12/12 03:26:44;;;;;;;22.05;14.77;;;3.30;91.80;;;;;;2071195;28;20559;-74
2020/12/12 03:27:44;;;;;;;21.85;14.95;;;3.40;91.80;;;;;;2071179;28;20052;-74
2020/12/12 03:28:45;;;;;;;20.15;14.25;;;3.30;91.80;;;;;;2071056;28;20030;-74
2020/12/12 03:29:46;;;;;;;25.60;15.63;;;3.40;91.80;;;;;;2079214;28;20056;-73
2020/12/12 03:30:47;;;;;;;20.27;14.27;;;3.40;91.80;;;;;;2071336;28;20137;-74
2020/12/12 03:31:47;;;;;;;20.27;14.38;;;3.40;91.80;;;;;;2072495;28;20089;-74
2020/12/12 03:32:48;;;;;;;21.60;14.65;;;3.30;91.70;;;;;;2072402;28;20037;-74
2020/12/12 03:33:49;;;;;;;21.13;14.45;;;3.40;91.70;;;;;;2072681;28;20041;-74
2020/12/12 03:34:49;;;;;;;21.15;14.25;;;3.40;91.70;;;;;;2073485;28;20026;-74
2020/12/12 03:35:50;;;;;;;20.30;14.77;;;3.40;91.70;;;;;;2073290;28;20022;-74
2020/12/12 03:36:50;;;;;;;23.15;15.73;;;3.40;91.60;;;;;;2073431;28;20084;-74
2020/12/12 03:37:51;;;;;;;22.35;15.00;;;3.40;91.60;;;;;;2073377;28;20018;-74
2020/12/12 03:38:52;;;;;;;25.40;15.88;;;3.40;91.60;;;;;;2073318;28;20122;-74
2020/12/12 03:39:53;;;;;;;23.33;14.88;;;3.50;91.60;;;;;;2072876;28;20117;-74
2020/12/12 03:40:53;;;;;;;25.50;16.38;;;3.40;91.60;;;;;;2072777;28;20021;-74
2020/12/12 03:41:54;;;;;;;25.52;16.05;;;3.50;91.60;;;;;;2080569;28;20033;-74
2020/12/12 03:42:55;;;;;;;23.20;14.88;;;3.40;91.60;;;;;;2073365;28;20131;-74
2020/12/12 03:43:55;;;;;;;21.98;14.63;;;3.40;91.60;;;;;;2073391;28;20104;-74
2020/12/12 03:44:56;;;;;;;20.20;14.32;;;3.50;91.60;;;;;;2073236;28;20033;-74
2020/12/12 03:45:57;;;;;;;20.05;14.27;;;3.50;91.50;;;;;;2064459;28;20501;-74
2020/12/12 03:46:57;;;;;;;18.17;13.52;;;3.50;91.50;;;;;;2064472;28;20082;-74
2020/12/12 03:47:58;;;;;;;21.20;14.93;;;3.50;91.50;;;;;;2072591;28;20034;-74
2020/12/12 03:48:59;;;;;;;19.95;14.15;;;3.50;91.50;;;;;;2072642;28;20117;-74
2020/12/12 03:49:59;;;;;;;30.33;18.30;;;3.50;91.50;;;;;;2072522;28;20028;-74
2020/12/12 03:51:00;;;;;;;23.10;14.82;;;3.50;91.50;;;;;;2072668;28;20081;-74
2020/12/12 03:52:01;;;;;;;23.92;14.88;;;3.50;91.50;;;;;;2072798;28;20412;-74
2020/12/12 03:53:02;;;;;;;21.00;14.40;;;3.50;91.50;;;;;;2072835;28;20057;-74
2020/12/12 03:54:03;;;;;;;21.70;14.73;;;3.50;91.50;;;;;;2065136;28;20038;-74
2020/12/12 03:55:04;;;;;;;20.20;13.65;;;3.50;91.40;;;;;;2072785;28;20030;-74
2020/12/12 03:56:04;;;;;;;19.95;14.20;;;3.50;91.40;;;;;;2073292;28;20030;-74
2020/12/12 03:57:06;;;;;;;23.85;15.80;;;3.50;91.40;;;;;;2072465;28;20081;-74
2020/12/12 03:58:07;;;;;;;22.02;14.68;;;3.60;91.40;;;;;;2064619;28;20739;-74
2020/12/12 03:59:07;;;;;;;22.60;14.68;;;3.60;91.30;;;;;;2064465;28;20031;-74
2020/12/12 04:00:08;;;;;;;20.27;14.38;;;3.60;91.30;;;;;;2072433;28;20428;-75
2020/12/12 04:01:09;;;;;;;20.75;14.07;;;3.60;91.30;;;;;;2073051;28;20038;-74
2020/12/12 04:02:09;;;;;;;18.77;13.07;;;3.60;91.30;;;;;;2072692;28;20037;-74
2020/12/12 04:03:10;;;;;;;24.88;15.90;;;3.60;91.60;;;;;;2073090;28;20057;-74
2020/12/12 04:04:10;;;;;;;22.83;15.00;;;3.60;91.30;;;;;;2073072;28;20128;-75
2020/12/12 04:05:11;;;;;;;20.75;14.45;;;3.60;91.30;;;;;;2073115;28;20389;-74
2020/12/12 04:06:12;;;;;;;20.70;14.52;;;3.60;91.30;;;;;;2072970;28;20075;-74
2020/12/12 04:07:13;;;;;;;18.98;13.63;;;3.60;91.40;;;;;;2073124;28;20779;-74
2020/12/12 04:08:13;;;;;;;21.15;14.27;;;3.60;91.40;;;;;;2072953;28;20083;-73
2020/12/12 04:09:14;;;;;;;21.15;14.00;;;3.60;91.40;;;;;;2073015;28;20381;-74
2020/12/12 04:10:14;;;;;;;22.13;14.85;;;3.60;91.40;;;;;;2073045;28;20040;-74
2020/12/12 04:11:16;;;;;;;23.20;15.05;;;3.60;91.40;;;;;;2072991;28;20485;-74
2020/12/12 04:12:16;;;;;;;21.95;14.77;;;3.60;91.40;;;;;;2072700;28;20029;-74
2020/12/12 04:13:17;;;;;;;20.35;14.50;;;3.60;91.30;;;;;;2073000;28;20119;-74
2020/12/12 04:14:18;;;;;;;20.33;14.20;;;3.60;91.30;;;;;;2072453;28;20026;-75
2020/12/12 04:15:19;;;;;;;20.83;14.05;;;3.60;91.40;;;;;;2072427;28;20060;-73
2020/12/12 04:16:19;;;;;;;24.42;15.18;;;3.60;91.30;;;;;;2072417;28;20041;-75
2020/12/12 04:17:20;;;;;;;22.13;14.95;;;3.60;91.40;;;;;;2072398;28;20485;-74
2020/12/12 04:18:21;;;;;;;20.80;14.68;;;3.60;91.40;;;;;;2072918;28;20536;-74
2020/12/12 04:19:22;;;;;;;20.40;14.75;;;3.60;91.30;;;;;;2072990;28;20072;-74
2020/12/12 04:20:23;;;;;;;21.27;15.07;;;3.60;91.40;;;;;;2072549;28;20104;-74
2020/12/12 04:21:24;;;;;;;26.73;17.02;;;3.60;91.40;;;;;;2072948;28;20061;-74
2020/12/12 04:22:24;;;;;;;23.70;15.52;;;3.60;91.40;;;;;;2073477;28;20030;-74
2020/12/12 04:23:25;;;;;;;23.08;16.02;;;3.60;91.40;;;;;;2073925;28;20484;-74
2020/12/12 04:24:26;;;;;;;21.02;15.48;;;3.60;91.40;;;;;;2072506;28;20065;-74
2020/12/12 04:25:26;;;;;;;20.20;15.07;;;3.60;91.40;;;;;;2072581;28;20442;-74
2020/12/12 04:26:27;;;;;;;21.55;15.30;;;3.70;91.50;;;;;;2073418;28;20130;-74
2020/12/12 04:27:30;;;;;;;29.83;18.33;;;3.60;91.40;;;;;;2072277;28;20076;-74
2020/12/12 04:28:30;;;;;;;23.88;16.55;;;3.60;91.40;;;;;;2072547;28;20057;-74
2020/12/12 04:29:31;;;;;;;27.35;16.83;;;3.70;91.40;;;;;;2080492;28;20056;-74
2020/12/12 04:30:32;;;;;;;23.00;16.20;;;3.70;91.40;;;;;;2080579;28;20026;-74
2020/12/12 04:31:32;;;;;;;29.02;17.83;;;3.70;91.40;;;;;;2072008;28;20026;-74
2020/12/12 04:32:33;;;;;;;26.73;16.33;;;3.70;91.40;;;;;;2072068;28;20083;-74
2020/12/12 04:33:34;;;;;;;23.85;16.15;;;3.70;91.40;;;;;;2072316;28;20041;-74
2020/12/12 04:34:35;;;;;;;25.48;16.60;;;3.70;91.40;;;;;;2064221;28;20038;-74
2020/12/12 04:35:36;;;;;;;25.08;16.60;;;3.70;91.40;;;;;;2072208;28;20038;-74
2020/12/12 04:36:36;;;;;;;24.75;16.08;;;3.70;91.40;;;;;;2072815;28;20029;-74
2020/12/12 04:37:37;;;;;;;22.15;15.35;;;3.70;91.40;;;;;;2072480;28;20592;-75
2020/12/12 04:38:38;;;;;;;22.58;16.08;;;3.70;91.40;;;;;;2079411;28;20028;-75
2020/12/12 04:39:38;;;;;;;26.13;17.48;;;3.70;91.40;;;;;;2080374;28;20022;-74
2020/12/12 04:40:39;;;;;;;24.67;16.85;;;3.70;91.30;;;;;;2080479;28;20345;-74
2020/12/12 04:41:42;;;;;;;23.20;16.42;;;3.70;91.40;;;;;;2088106;28;20490;-74
2020/12/12 04:42:43;;;;;;;24.13;16.45;;;3.70;91.30;;;;;;2080873;28;20071;-74
2020/12/12 04:43:45;;;;;;;23.00;15.55;;;3.70;91.30;;;;;;2081012;28;20069;-74
2020/12/12 04:44:46;;;;;;;23.77;16.38;;;3.70;91.30;;;;;;2081141;28;20032;-74
2020/12/12 04:45:49;;;;;;;22.58;15.45;;;3.70;91.40;;;;;;2081084;28;20022;-74
2020/12/12 04:46:51;;;;;;;20.45;14.85;;;3.70;91.40;;;;;;2081108;28;20049;-74
2020/12/12 04:47:53;;;;;;;21.38;15.82;;;3.70;91.40;;;;;;2081049;28;20116;-74
2020/12/12 04:48:53;;;;;;;25.23;17.60;;;3.70;91.40;;;;;;2081043;28;20076;-74
2020/12/12 04:49:54;;;;;;;23.10;16.40;;;3.70;91.40;;;;;;2081152;28;20704;-74
2020/12/12 04:50:56;;;;;;;24.02;16.55;;;3.70;91.40;;;;;;2080925;28;20029;-74
2020/12/12 04:51:59;;;;;;;21.02;15.30;;;3.70;91.40;;;;;;2080653;28;20105;-74
2020/12/12 04:53:17;;;;;;;23.48;16.25;;;3.70;91.50;;;;;;2080292;28;20061;-74
2020/12/12 04:54:20;;;;;;;21.80;15.32;;;3.70;91.40;;;;;;2080460;28;20029;-74
2020/12/12 04:55:22;;;;;;;25.65;17.08;;;3.70;91.40;;;;;;2080968;28;20486;-74
2020/12/12 04:56:24;;;;;;;23.95;16.27;;;3.70;91.40;;;;;;2080280;28;20037;-75
2020/12/12 04:57:25;;;;;;;22.73;16.15;;;3.70;91.40;;;;;;2074735;28;20029;-74
2020/12/12 04:58:27;;;;;;;22.27;15.45;;;3.70;91.40;;;;;;2080424;28;20056;-74
2020/12/12 04:59:31;;;;;;;21.70;15.68;;;3.80;91.40;;;;;;2072599;28;20544;-74
2020/12/12 05:00:32;;;;;;;24.13;16.05;;;3.80;91.30;;;;;;2072329;28;20075;-74
2020/12/12 05:01:33;;;;;;;22.20;15.68;;;3.80;91.30;;;;;;2063894;28;20125;-73
2020/12/12 05:02:34;;;;;;;20.70;15.32;;;3.80;91.30;;;;;;2063578;28;20018;-74
2020/12/12 05:03:36;;;;;;;23.05;16.38;;;3.80;91.30;;;;;;2055934;28;20504;-74
2020/12/12 05:04:36;;;;;;;22.20;16.40;;;3.80;91.40;;;;;;2055909;28;20050;-74
2020/12/12 05:05:37;;;;;;;24.23;16.52;;;3.80;91.30;;;;;;2055865;28;20027;-75
2020/12/12 05:06:38;;;;;;;23.08;16.63;;;3.80;91.30;;;;;;2072000;28;20081;-74
2020/12/12 05:07:38;;;;;;;22.13;16.48;;;3.70;91.30;;;;;;2072638;28;20129;-74
2020/12/12 05:08:39;;;;;;;21.15;16.35;;;3.70;91.30;;;;;;2071933;28;20104;-74
2020/12/12 05:09:40;;;;;;;22.55;16.00;;;3.70;91.40;;;;;;2072064;28;20473;-74
2020/12/12 05:10:45;;;;;;;33.38;19.67;;;3.70;91.40;;;;;;2072113;28;20049;-74
2020/12/12 05:11:47;;;;;;;29.75;18.20;;;3.70;91.40;;;;;;2056212;28;20065;-74
2020/12/12 05:12:48;;;;;;;25.42;16.70;;;3.70;91.40;;;;;;2063964;28;20393;-74
2020/12/12 05:13:49;;;;;;;26.00;16.77;;;3.70;91.40;;;;;;2071913;28;20029;-74
2020/12/12 05:14:50;;;;;;;30.45;18.77;;;3.70;91.40;;;;;;2071932;28;20068;-73